Time;durP1;ratioP1;P1;durP2;ratioP2;P2;SDS_P1;SDS_P2;PMS_P1;PMS_P2;Temp;Humidity;BMP_temperature;BMP_pressure;BME280_temperature;BME280_humidity;BME280_pressure;Samples;Min_cycle;Max_cycle;Signal;HPM_P1;HPM_P2
2022/07/27 00:00:32;;;;;;;2.63;0.40;;;13.90;73.30;;;;;;4956384;28;20558;-67
2022/07/27 00:02:58;;;;;;;2.50;0.50;;;13.90;73.10;;;;;;4965851;28;20044;-68
2022/07/27 00:05:24;;;;;;;3.17;0.57;;;13.90;73.10;;;;;;4960249;28;20038;-68
2022/07/27 00:07:49;;;;;;;5.10;0.50;;;14.00;72.90;;;;;;4966563;28;20097;-68
2022/07/27 00:10:16;;;;;;;4.83;0.63;;;14.00;73.20;;;;;;4969114;28;20043;-68
2022/07/27 00:12:42;;;;;;;2.27;0.40;;;14.00;73.00;;;;;;4966863;28;20573;-68
2022/07/27 00:15:08;;;;;;;4.13;0.50;;;13.90;73.20;;;;;;4967701;28;20321;-68
2022/07/27 00:17:34;;;;;;;1.40;0.40;;;13.90;73.00;;;;;;4968147;28;20425;-68
2022/07/27 00:20:01;;;;;;;6.47;0.60;;;13.90;73.10;;;;;;4966254;28;20289;-68
2022/07/27 00:22:26;;;;;;;3.57;0.60;;;13.90;73.00;;;;;;4985173;28;20046;-68
2022/07/27 00:24:52;;;;;;;4.17;0.50;;;13.90;73.00;;;;;;4961921;28;20347;-68
2022/07/27 00:27:18;;;;;;;4.73;0.97;;;13.80;72.80;;;;;;4965214;28;20170;-68
2022/07/27 00:29:44;;;;;;;7.43;1.23;;;13.80;72.50;;;;;;4943190;28;20042;-68
2022/07/27 00:32:11;;;;;;;3.17;1.07;;;13.80;72.20;;;;;;4983726;28;20407;-68
2022/07/27 00:34:36;;;;;;;4.97;0.70;;;13.80;72.10;;;;;;4969363;28;20293;-68
2022/07/27 00:37:03;;;;;;;2.90;0.57;;;13.80;71.90;;;;;;4951860;28;20312;-68
2022/07/27 00:39:29;;;;;;;3.53;0.60;;;13.80;71.70;;;;;;4966996;28;20050;-67
2022/07/27 00:41:54;;;;;;;4.20;0.50;;;13.80;71.60;;;;;;4950802;28;20296;-68
2022/07/27 00:44:38;;;;;;;3.23;0.57;;;13.80;71.60;;;;;;4966753;28;20031;-68
2022/07/27 00:47:04;;;;;;;5.27;0.90;;;13.70;71.70;;;;;;4943423;28;20286;-68
2022/07/27 00:49:30;;;;;;;3.57;0.50;;;13.70;71.80;;;;;;4945276;28;20285;-68
2022/07/27 00:51:56;;;;;;;4.20;0.53;;;13.60;71.80;;;;;;4966009;28;20384;-68
2022/07/27 00:54:22;;;;;;;5.53;0.47;;;13.50;71.70;;;;;;4969095;28;20482;-67
2022/07/27 00:56:48;;;;;;;6.97;0.80;;;13.40;71.80;;;;;;4980910;28;20046;-66
2022/07/27 00:59:14;;;;;;;2.80;0.90;;;13.40;72.00;;;;;;4953698;28;20305;-66
2022/07/27 01:01:41;;;;;;;4.57;0.80;;;13.30;72.10;;;;;;4964389;28;20300;-66
2022/07/27 01:04:07;;;;;;;5.03;1.27;;;13.20;72.70;;;;;;4972016;28;20049;-66
2022/07/27 01:06:33;;;;;;;5.07;0.83;;;13.10;72.60;;;;;;4971920;28;20328;-66
2022/07/27 01:11:47;;;;;;;4.07;0.50;;;12.90;72.90;;;;;;4980394;28;20353;-66
2022/07/27 01:14:15;;;;;;;6.57;1.20;;;12.80;72.70;;;;;;4970919;28;20111;-66
2022/07/27 01:16:41;;;;;;;4.13;0.50;;;12.70;73.20;;;;;;4972231;28;20319;-66
2022/07/27 01:19:11;;;;;;;2.53;0.80;;;12.60;73.20;;;;;;4971384;28;20812;-66
2022/07/27 01:21:37;;;;;;;3.77;0.97;;;12.60;73.50;;;;;;4969584;28;20297;-66
2022/07/27 01:24:03;;;;;;;3.90;0.87;;;12.50;73.40;;;;;;4978296;28;20285;-66
2022/07/27 01:26:30;;;;;;;3.90;0.87;;;12.40;73.70;;;;;;4972254;28;20289;-66
2022/07/27 01:28:57;;;;;;;3.33;0.70;;;12.40;74.30;;;;;;4975432;28;20832;-66
2022/07/27 01:31:23;;;;;;;4.30;0.63;;;12.30;75.10;;;;;;4971152;28;20285;-66
2022/07/27 01:33:48;;;;;;;4.17;1.00;;;12.20;75.10;;;;;;4943022;28;20390;-66
2022/07/27 01:36:14;;;;;;;3.70;1.10;;;12.10;75.50;;;;;;4966630;28;20045;-66
2022/07/27 01:38:40;;;;;;;5.03;0.60;;;12.00;75.30;;;;;;4973944;28;20137;-66
2022/07/27 01:41:06;;;;;;;3.13;0.93;;;11.90;75.20;;;;;;4969511;28;20061;-66
2022/07/27 01:43:31;;;;;;;4.83;0.67;;;11.90;75.70;;;;;;4956771;28;20129;-66
2022/07/27 01:45:58;;;;;;;3.93;0.50;;;11.80;75.50;;;;;;4971616;28;20035;-66
2022/07/27 01:48:24;;;;;;;5.37;0.50;;;11.80;75.60;;;;;;4969881;28;20042;-67
2022/07/27 01:50:50;;;;;;;2.03;0.57;;;11.80;75.30;;;;;;4954953;28;20297;-67
2022/07/27 01:53:17;;;;;;;5.60;1.33;;;11.70;75.50;;;;;;4953766;28;20345;-67
2022/07/27 01:55:42;;;;;;;3.50;0.53;;;11.70;75.20;;;;;;4955690;28;20285;-66
2022/07/27 01:58:08;;;;;;;3.00;0.40;;;11.70;75.40;;;;;;4959795;28;20364;-66
2022/07/27 02:00:35;;;;;;;3.17;0.70;;;11.70;75.10;;;;;;4969934;28;20057;-67
2022/07/27 02:03:02;;;;;;;7.63;1.33;;;11.70;74.90;;;;;;4970261;28;20376;-67
2022/07/27 02:05:28;;;;;;;4.07;0.60;;;11.60;74.50;;;;;;4970738;28;20045;-67
2022/07/27 02:07:54;;;;;;;4.23;0.77;;;11.60;74.60;;;;;;4969240;28;20285;-67
2022/07/27 02:10:19;;;;;;;4.23;0.77;;;11.50;75.20;;;;;;4967128;28;20035;-67
2022/07/27 02:12:45;;;;;;;5.00;0.70;;;11.50;75.20;;;;;;4966572;28;20077;-67
2022/07/27 02:15:18;;;;;;;5.73;0.73;;;11.40;75.10;;;;;;4981128;28;20128;-67
2022/07/27 02:17:44;;;;;;;3.55;0.73;;;11.40;75.10;;;;;;4970495;28;20069;-67
2022/07/27 02:20:12;;;;;;;5.28;0.70;;;11.30;75.20;;;;;;4966478;28;20189;-67
2022/07/27 02:22:37;;;;;;;4.70;0.80;;;11.30;75.70;;;;;;4968807;28;20125;-67
2022/07/27 02:25:05;;;;;;;6.03;1.00;;;11.20;76.00;;;;;;4953921;28;20121;-67
2022/07/27 02:27:30;;;;;;;3.58;0.70;;;11.10;76.20;;;;;;4969980;28;20096;-67
2022/07/27 02:29:56;;;;;;;4.20;1.20;;;11.10;76.10;;;;;;4965381;28;20137;-67
2022/07/27 02:32:23;;;;;;;4.97;0.57;;;11.10;76.00;;;;;;4986688;28;20046;-67
2022/07/27 02:34:49;;;;;;;6.75;1.20;;;11.10;76.10;;;;;;4954324;28;20537;-67
2022/07/27 02:37:15;;;;;;;6.63;1.30;;;11.10;76.40;;;;;;4942719;28;20046;-67
2022/07/27 02:39:41;;;;;;;4.80;0.77;;;11.00;76.30;;;;;;4966234;28;20042;-67
2022/07/27 02:42:07;;;;;;;4.50;0.80;;;11.00;76.80;;;;;;4967513;28;20736;-67
2022/07/27 02:44:33;;;;;;;5.17;0.83;;;11.00;76.60;;;;;;4965641;28;20038;-67
2022/07/27 02:46:58;;;;;;;4.90;0.50;;;11.00;76.70;;;;;;4953180;28;20045;-67
2022/07/27 02:49:24;;;;;;;4.33;0.87;;;11.00;76.40;;;;;;4967174;28;20042;-67
2022/07/27 02:51:51;;;;;;;4.43;0.90;;;11.00;76.60;;;;;;4969733;28;20109;-67
2022/07/27 02:54:18;;;;;;;4.70;0.77;;;11.00;76.80;;;;;;4966407;28;20046;-67
2022/07/27 02:56:44;;;;;;;4.57;0.80;;;11.10;76.90;;;;;;4965554;28;20051;-67
2022/07/27 02:59:09;;;;;;;3.30;0.67;;;11.10;76.70;;;;;;4971697;28;20042;-68
2022/07/27 03:01:36;;;;;;;4.03;0.80;;;11.10;76.70;;;;;;4969810;28;20137;-67
2022/07/27 03:04:03;;;;;;;4.63;0.65;;;11.10;76.70;;;;;;4948447;28;20073;-67
2022/07/27 03:06:28;;;;;;;3.38;0.70;;;11.20;77.00;;;;;;4970190;28;20042;-67
2022/07/27 03:08:54;;;;;;;3.33;0.77;;;11.20;76.80;;;;;;4949799;28;20503;-67
2022/07/27 03:11:20;;;;;;;3.97;0.60;;;11.20;76.50;;;;;;4968952;28;20045;-67
2022/07/27 03:13:46;;;;;;;2.43;0.80;;;11.20;76.30;;;;;;4970877;28;20490;-67
2022/07/27 03:16:11;;;;;;;3.93;0.83;;;11.20;76.40;;;;;;4963636;28;20038;-67
2022/07/27 03:18:37;;;;;;;2.87;0.80;;;11.20;76.80;;;;;;4981136;28;20411;-67
2022/07/27 03:21:03;;;;;;;2.67;0.80;;;11.20;76.60;;;;;;4968366;28;20046;-67
2022/07/27 03:23:29;;;;;;;5.43;0.70;;;11.20;76.80;;;;;;4965890;28;20042;-67
2022/07/27 03:25:54;;;;;;;4.70;1.07;;;11.20;77.00;;;;;;4974883;28;20042;-67
2022/07/27 03:28:20;;;;;;;3.70;1.07;;;11.10;77.00;;;;;;4966518;28;20096;-67
2022/07/27 03:30:46;;;;;;;7.37;1.10;;;11.10;77.00;;;;;;4953119;28;20054;-67
2022/07/27 03:33:11;;;;;;;6.77;1.50;;;11.10;77.20;;;;;;4953255;28;20046;-67
2022/07/27 03:35:37;;;;;;;4.73;1.43;;;11.00;77.20;;;;;;4954166;28;20088;-67
2022/07/27 03:38:03;;;;;;;6.37;1.03;;;11.00;77.60;;;;;;4963193;28;20129;-67
2022/07/27 03:40:31;;;;;;;5.17;1.00;;;10.90;77.70;;;;;;4968721;28;20054;-67
2022/07/27 03:42:57;;;;;;;4.60;0.90;;;10.90;77.70;;;;;;4964009;28;20065;-67
2022/07/27 03:45:23;;;;;;;5.27;1.27;;;11.00;77.70;;;;;;4965586;28;20077;-67
2022/07/27 03:47:49;;;;;;;5.63;1.00;;;11.00;77.60;;;;;;4960764;28;20046;-67
2022/07/27 03:50:14;;;;;;;5.00;0.80;;;11.10;78.10;;;;;;4961242;28;20285;-67
2022/07/27 03:52:40;;;;;;;3.57;1.10;;;11.20;77.80;;;;;;4968261;28;20418;-67
2022/07/27 03:55:06;;;;;;;6.70;1.00;;;11.30;77.60;;;;;;4974112;28;20137;-67
2022/07/27 03:57:32;;;;;;;4.53;1.02;;;11.40;77.40;;;;;;4963362;28;20046;-67
2022/07/27 03:59:58;;;;;;;5.30;0.87;;;11.40;77.30;;;;;;4970243;28;20077;-67
2022/07/27 04:02:23;;;;;;;7.87;1.90;;;11.50;77.30;;;;;;4969464;28;20042;-67
2022/07/27 04:04:49;;;;;;;5.37;1.30;;;11.50;77.10;;;;;;4965058;28;20038;-67
2022/07/27 04:07:15;;;;;;;6.73;0.90;;;11.60;77.00;;;;;;4982848;28;20450;-67
2022/07/27 04:09:40;;;;;;;7.40;1.00;;;11.70;76.90;;;;;;4969572;28;20584;-67
2022/07/27 04:12:06;;;;;;;5.43;1.13;;;11.70;77.00;;;;;;4968711;28;20418;-67
2022/07/27 04:14:32;;;;;;;7.57;1.10;;;11.80;77.00;;;;;;4958458;28;20034;-67
2022/07/27 04:16:57;;;;;;;4.70;1.30;;;11.90;76.70;;;;;;4964432;28;20171;-67
2022/07/27 04:19:23;;;;;;;4.97;1.20;;;11.90;76.70;;;;;;4958972;28;20046;-67
2022/07/27 04:21:49;;;;;;;4.13;1.00;;;12.00;76.80;;;;;;4955354;28;20050;-67
2022/07/27 04:24:14;;;;;;;4.00;0.93;;;12.10;76.70;;;;;;4968830;28;20395;-67
2022/07/27 04:26:40;;;;;;;3.03;1.03;;;12.20;76.70;;;;;;4952402;28;20049;-67
2022/07/27 04:29:06;;;;;;;4.77;1.13;;;12.30;76.70;;;;;;4968306;28;20542;-67
2022/07/27 04:31:32;;;;;;;4.93;1.13;;;12.40;76.70;;;;;;4946776;28;20055;-67
2022/07/27 04:33:57;;;;;;;3.80;1.03;;;12.50;76.60;;;;;;4930500;29;20397;-67
2022/07/27 04:36:23;;;;;;;5.73;1.10;;;12.50;76.50;;;;;;4944153;29;20049;-67
2022/07/27 04:38:48;;;;;;;5.33;1.10;;;12.60;76.50;;;;;;4946006;29;20055;-67
2022/07/27 04:41:14;;;;;;;3.93;1.10;;;12.70;76.30;;;;;;4936358;29;20035;-67
2022/07/27 04:43:40;;;;;;;6.17;1.40;;;12.70;76.40;;;;;;4945727;29;20048;-67
2022/07/27 04:46:06;;;;;;;2.53;1.17;;;12.80;76.50;;;;;;4941368;29;20066;-67
2022/07/27 04:48:32;;;;;;;3.30;0.90;;;12.90;76.60;;;;;;4947056;29;20051;-67
2022/07/27 04:50:58;;;;;;;2.83;0.70;;;13.00;76.40;;;;;;4946616;29;20054;-67
2022/07/27 04:53:24;;;;;;;7.23;1.30;;;13.10;76.20;;;;;;4949703;29;20818;-67
2022/07/27 04:55:50;;;;;;;7.23;1.37;;;13.20;76.20;;;;;;4942146;29;20790;-67
2022/07/27 04:58:16;;;;;;;5.97;1.10;;;13.30;76.10;;;;;;4944375;29;20307;-67
2022/07/27 05:00:44;;;;;;;2.83;1.20;;;13.40;76.10;;;;;;4931718;29;20082;-67
2022/07/27 05:03:10;;;;;;;4.00;0.93;;;13.50;75.80;;;;;;4939048;29;20047;-67
2022/07/27 05:05:36;;;;;;;5.03;1.10;;;13.50;75.60;;;;;;4950082;29;20290;-67
2022/07/27 05:08:03;;;;;;;3.07;0.90;;;13.50;75.50;;;;;;4942935;29;20605;-67
2022/07/27 05:10:28;;;;;;;5.67;1.20;;;13.50;75.60;;;;;;4936537;29;20530;-67
2022/07/27 05:12:54;;;;;;;5.87;1.00;;;13.70;76.00;;;;;;4947892;29;20287;-67
2022/07/27 05:15:20;;;;;;;4.40;1.27;;;14.30;75.80;;;;;;4925888;29;20119;-67
2022/07/27 05:17:46;;;;;;;4.70;1.33;;;14.60;73.70;;;;;;4942903;29;20045;-67
2022/07/27 05:20:13;;;;;;;4.43;0.97;;;14.80;73.50;;;;;;4938182;29;20190;-67
2022/07/27 05:22:39;;;;;;;4.63;1.20;;;14.90;72.50;;;;;;4929467;29;20282;-67
2022/07/27 05:25:05;;;;;;;5.27;1.30;;;14.70;72.50;;;;;;4940640;29;20675;-67
2022/07/27 05:27:31;;;;;;;5.07;1.00;;;14.60;73.00;;;;;;4930849;29;20563;-67
2022/07/27 05:29:57;;;;;;;3.80;0.97;;;14.90;74.00;;;;;;4932320;28;20345;-67
2022/07/27 05:32:23;;;;;;;5.37;1.60;;;15.90;72.80;;;;;;4975425;28;20459;-67
2022/07/27 05:34:48;;;;;;;5.57;1.13;;;16.90;70.30;;;;;;4964372;28;20057;-67
2022/07/27 05:37:14;;;;;;;3.47;1.00;;;17.90;67.60;;;;;;4967287;28;20038;-67
2022/07/27 05:39:42;;;;;;;4.03;0.87;;;18.70;65.80;;;;;;4964663;28;20050;-67
2022/07/27 05:42:09;;;;;;;5.20;0.90;;;19.30;64.00;;;;;;4952815;28;20037;-67
2022/07/27 05:44:34;;;;;;;7.50;1.13;;;19.70;62.10;;;;;;4969520;28;20290;-68
2022/07/27 05:47:00;;;;;;;3.30;1.10;;;20.00;60.30;;;;;;4969260;28;20352;-68
2022/07/27 05:49:26;;;;;;;4.53;0.83;;;20.30;58.40;;;;;;4958163;28;20080;-67
2022/07/27 05:51:52;;;;;;;4.27;0.57;;;20.70;57.30;;;;;;4967934;28;20043;-67
2022/07/27 05:54:18;;;;;;;3.10;0.57;;;21.00;56.60;;;;;;4964632;28;20261;-68
2022/07/27 05:56:45;;;;;;;5.77;0.70;;;21.20;55.10;;;;;;4987417;28;20133;-68
2022/07/27 05:59:10;;;;;;;9.77;0.60;;;21.40;54.10;;;;;;4966387;28;20717;-68
2022/07/27 06:01:37;;;;;;;7.13;1.03;;;21.30;54.70;;;;;;4969420;28;20285;-68
2022/07/27 06:04:03;;;;;;;4.30;0.70;;;20.90;55.10;;;;;;4986439;28;20492;-68
2022/07/27 06:09:13;;;;;;;5.28;0.88;;;20.20;56.00;;;;;;4967319;28;20800;-68
2022/07/27 06:11:39;;;;;;;3.23;0.50;;;20.20;56.30;;;;;;4963050;28;20046;-68
2022/07/27 06:14:05;;;;;;;6.37;0.60;;;20.50;56.10;;;;;;4968929;28;20495;-66
2022/07/27 06:16:31;;;;;;;3.83;0.30;;;20.90;55.20;;;;;;4959660;28;20170;-66
2022/07/27 06:18:56;;;;;;;3.83;0.67;;;21.20;53.20;;;;;;4952268;28;20047;-67
2022/07/27 06:21:26;;;;;;;4.83;0.73;;;21.50;53.20;;;;;;4955025;28;20093;-67
2022/07/27 06:23:53;;;;;;;3.27;0.47;;;21.70;52.20;;;;;;4966299;28;20042;-67
2022/07/27 06:26:19;;;;;;;4.23;0.40;;;21.70;52.10;;;;;;4960636;28;20294;-67
2022/07/27 06:28:45;;;;;;;5.00;0.60;;;21.80;51.70;;;;;;4961053;28;20380;-67
2022/07/27 06:31:11;;;;;;;3.10;0.73;;;21.80;51.10;;;;;;4969678;28;20093;-67
2022/07/27 06:33:37;;;;;;;4.33;0.60;;;21.80;50.40;;;;;;4957264;28;20159;-67
2022/07/27 06:36:04;;;;;;;4.00;0.63;;;21.90;50.90;;;;;;4965552;28;20401;-67
2022/07/27 06:38:30;;;;;;;3.13;0.57;;;21.80;50.40;;;;;;4947218;28;20542;-67
2022/07/27 06:40:57;;;;;;;4.10;0.50;;;21.70;50.70;;;;;;4954674;28;20292;-67
2022/07/27 06:43:25;;;;;;;5.50;0.53;;;21.90;50.70;;;;;;4967275;28;20292;-67
2022/07/27 06:45:52;;;;;;;2.10;0.30;;;22.10;49.90;;;;;;4970275;28;20285;-67
2022/07/27 06:48:20;;;;;;;3.23;0.50;;;22.10;49.80;;;;;;4963731;28;20297;-67
2022/07/27 06:50:46;;;;;;;3.83;0.30;;;22.10;49.60;;;;;;4970201;28;20050;-67
2022/07/27 06:53:12;;;;;;;2.13;0.57;;;22.10;49.50;;;;;;4968441;28;20034;-67
2022/07/27 06:55:38;;;;;;;4.17;0.67;;;21.90;49.80;;;;;;4968872;28;20372;-67
2022/07/27 06:58:04;;;;;;;3.67;0.50;;;21.70;49.90;;;;;;4965569;28;20049;-67
2022/07/27 07:00:30;;;;;;;3.07;0.37;;;21.80;50.50;;;;;;4967617;28;20038;-67
2022/07/27 07:03:01;;;;;;;5.10;0.53;;;21.70;49.90;;;;;;4966082;28;20109;-67
2022/07/27 07:05:28;;;;;;;1.60;0.43;;;21.40;50.00;;;;;;4973743;28;20087;-67
2022/07/27 07:07:55;;;;;;;3.73;0.40;;;21.20;50.20;;;;;;4957749;28;20041;-67
2022/07/27 07:10:21;;;;;;;3.43;0.60;;;21.00;49.90;;;;;;4968018;28;20049;-67
2022/07/27 07:12:47;;;;;;;2.67;0.50;;;20.70;50.60;;;;;;4971522;28;20035;-67
2022/07/27 07:15:15;;;;;;;4.07;0.40;;;20.60;50.80;;;;;;4982253;28;20121;-67
2022/07/27 07:17:41;;;;;;;2.40;0.50;;;20.30;51.80;;;;;;4944031;28;20049;-67
2022/07/27 07:20:08;;;;;;;6.13;0.60;;;19.90;51.90;;;;;;4982463;28;20399;-67
2022/07/27 07:22:33;;;;;;;2.57;0.77;;;19.60;52.90;;;;;;4958797;28;20046;-67
2022/07/27 07:25:00;;;;;;;2.63;0.60;;;19.50;53.50;;;;;;4947766;28;20457;-67
2022/07/27 07:27:26;;;;;;;2.97;0.47;;;19.50;52.90;;;;;;4967545;28;20045;-67
2022/07/27 07:29:52;;;;;;;2.63;0.40;;;19.30;53.20;;;;;;4957450;28;20087;-66
2022/07/27 07:32:23;;;;;;;3.87;0.40;;;19.10;53.80;;;;;;4982501;28;20549;-66
2022/07/27 07:34:49;;;;;;;3.10;0.50;;;18.80;54.10;;;;;;4966351;28;20046;-66
2022/07/27 07:37:16;;;;;;;3.93;0.50;;;18.70;54.80;;;;;;4959079;28;20301;-66
2022/07/27 07:39:41;;;;;;;4.97;0.50;;;18.70;55.20;;;;;;4944721;28;20084;-66
2022/07/27 07:42:07;;;;;;;4.77;1.03;;;18.90;55.30;;;;;;4961259;28;20311;-66
2022/07/27 07:44:33;;;;;;;2.53;0.50;;;19.10;55.30;;;;;;4965730;28;20031;-66
2022/07/27 07:46:59;;;;;;;7.33;0.33;;;19.20;55.10;;;;;;4965502;28;20181;-66
2022/07/27 07:49:25;;;;;;;3.43;0.50;;;19.20;54.70;;;;;;4946513;28;20042;-66
2022/07/27 07:51:51;;;;;;;4.53;0.60;;;19.20;54.40;;;;;;4978946;28;20316;-66
2022/07/27 07:54:17;;;;;;;4.37;0.50;;;19.00;54.80;;;;;;4961825;28;20035;-67
2022/07/27 07:56:43;;;;;;;3.47;0.40;;;19.10;55.50;;;;;;4963293;28;20089;-66
2022/07/27 07:59:08;;;;;;;2.83;0.50;;;19.40;55.60;;;;;;4942639;28;20046;-67
2022/07/27 08:01:34;;;;;;;2.03;0.67;;;19.60;55.00;;;;;;4963296;28;20523;-66
2022/07/27 08:04:00;;;;;;;1.83;0.47;;;19.80;55.10;;;;;;4959095;28;20051;-66
2022/07/27 08:06:26;;;;;;;1.83;0.27;;;19.90;54.10;;;;;;4966534;28;20165;-67
2022/07/27 08:08:51;;;;;;;2.17;0.93;;;19.80;54.20;;;;;;4967590;28;20132;-67
2022/07/27 08:11:17;;;;;;;5.73;0.60;;;19.70;54.70;;;;;;4950059;28;20047;-66
2022/07/27 08:13:43;;;;;;;2.77;0.40;;;19.60;55.30;;;;;;4955372;28;20046;-66
2022/07/27 08:16:09;;;;;;;3.87;0.67;;;19.40;55.90;;;;;;4954193;28;20073;-66
2022/07/27 08:18:35;;;;;;;3.53;0.70;;;19.10;56.60;;;;;;4971073;28;20045;-66
2022/07/27 08:21:00;;;;;;;1.63;0.33;;;19.00;56.90;;;;;;4968131;28;20690;-66
2022/07/27 08:23:26;;;;;;;1.73;0.47;;;18.90;57.40;;;;;;4955351;28;20093;-66
2022/07/27 08:25:52;;;;;;;2.43;0.60;;;18.90;57.90;;;;;;4954313;28;20027;-66
2022/07/27 08:28:18;;;;;;;2.27;0.40;;;19.00;58.10;;;;;;4969488;28;20042;-66
2022/07/27 08:30:45;;;;;;;3.00;0.67;;;19.10;57.90;;;;;;4969169;28;20182;-66
2022/07/27 08:33:11;;;;;;;4.57;0.63;;;19.20;57.50;;;;;;4970314;28;20038;-66
2022/07/27 08:35:36;;;;;;;3.70;0.50;;;19.20;57.10;;;;;;4962287;28;20053;-67
2022/07/27 08:38:05;;;;;;;2.27;0.50;;;19.10;56.90;;;;;;4969533;28;20077;-66
2022/07/27 08:40:32;;;;;;;2.83;0.50;;;19.20;57.20;;;;;;4969970;28;20065;-66
2022/07/27 08:43:00;;;;;;;1.93;0.40;;;19.30;57.40;;;;;;4970834;28;20104;-66
2022/07/27 08:45:26;;;;;;;5.10;0.80;;;19.30;56.90;;;;;;4968448;28;20407;-66
2022/07/27 08:47:52;;;;;;;2.40;0.40;;;19.30;56.50;;;;;;4954212;28;20124;-66
2022/07/27 08:50:23;;;;;;;2.33;0.60;;;19.30;56.70;;;;;;4971862;28;20153;-66
2022/07/27 08:53:07;;;;;;;4.20;0.67;;;19.40;56.60;;;;;;4961498;28;20113;-66
2022/07/27 08:55:51;;;;;;;4.00;0.60;;;19.40;56.60;;;;;;4972271;28;20046;-66
2022/07/27 08:58:17;;;;;;;4.20;0.50;;;19.40;56.40;;;;;;4964330;28;20061;-67
2022/07/27 09:00:48;;;;;;;4.27;0.50;;;19.30;57.40;;;;;;4950471;28;20043;-67
2022/07/27 09:03:15;;;;;;;3.93;0.90;;;19.30;57.50;;;;;;4982148;28;20031;-67
2022/07/27 09:05:43;;;;;;;2.67;0.50;;;19.40;56.70;;;;;;4984194;28;20800;-67
2022/07/27 09:08:13;;;;;;;3.80;0.60;;;19.50;56.60;;;;;;4954403;28;20200;-67
2022/07/27 09:10:40;;;;;;;4.47;0.67;;;19.50;56.70;;;;;;4958565;28;20479;-67
2022/07/27 09:13:16;;;;;;;4.10;0.53;;;19.70;57.00;;;;;;4948995;28;20085;-67
2022/07/27 09:15:50;;;;;;;3.67;0.47;;;19.80;56.70;;;;;;4965472;28;20475;-67
2022/07/27 09:18:19;;;;;;;7.20;0.73;;;19.80;56.50;;;;;;4982849;28;20050;-67
2022/07/27 09:20:45;;;;;;;5.03;0.70;;;19.90;56.40;;;;;;4947647;28;20546;-67
2022/07/27 09:23:24;;;;;;;2.07;0.60;;;20.00;56.40;;;;;;4968986;28;20128;-67
2022/07/27 09:26:18;;;;;;;4.17;0.90;;;20.10;56.30;;;;;;4954930;28;20042;-67
2022/07/27 09:28:44;;;;;;;5.00;0.60;;;20.20;55.60;;;;;;4966040;28;20129;-67
2022/07/27 09:31:15;;;;;;;3.30;0.57;;;20.20;56.30;;;;;;4951504;28;20479;-67
2022/07/27 09:33:44;;;;;;;3.83;0.83;;;20.40;55.60;;;;;;4965838;28;20050;-67
2022/07/27 09:36:11;;;;;;;5.63;0.70;;;20.50;55.70;;;;;;4967792;28;20042;-67
2022/07/27 09:38:48;;;;;;;6.37;0.97;;;20.60;55.30;;;;;;4969338;28;20054;-67
2022/07/27 09:41:14;;;;;;;4.10;0.60;;;20.80;54.80;;;;;;4951921;28;20089;-67
2022/07/27 09:43:54;;;;;;;3.50;0.40;;;21.10;53.40;;;;;;4953052;28;20038;-67
2022/07/27 09:46:35;;;;;;;2.97;0.53;;;21.20;51.00;;;;;;4951507;28;20111;-67
2022/07/27 09:49:02;;;;;;;1.63;0.37;;;21.40;51.20;;;;;;4984946;28;20574;-67
2022/07/27 09:51:28;;;;;;;1.87;0.47;;;21.70;50.20;;;;;;4970012;28;20428;-67
2022/07/27 09:53:56;;;;;;;3.13;0.30;;;21.70;48.40;;;;;;4953811;28;20133;-67
2022/07/27 09:56:30;;;;;;;3.17;0.57;;;21.50;49.10;;;;;;4951963;28;20125;-67
2022/07/27 09:59:00;;;;;;;3.47;0.45;;;21.20;49.50;;;;;;4962364;28;20117;-67
2022/07/27 10:01:36;;;;;;;4.50;0.60;;;20.70;50.80;;;;;;4967664;28;20514;-67
2022/07/27 10:04:04;;;;;;;2.53;0.40;;;20.50;51.20;;;;;;4965128;28;20117;-67
2022/07/27 10:06:30;;;;;;;3.23;0.50;;;20.30;51.50;;;;;;4954015;28;20468;-67
2022/07/27 10:08:58;;;;;;;6.87;0.60;;;20.20;52.30;;;;;;4966783;28;20046;-67
2022/07/27 10:11:25;;;;;;;1.70;0.40;;;20.00;53.00;;;;;;4968660;28;20100;-66
2022/07/27 10:13:53;;;;;;;3.30;0.43;;;19.90;52.60;;;;;;4964764;28;20207;-66
2022/07/27 10:16:24;;;;;;;3.87;0.60;;;19.70;52.40;;;;;;4984783;28;20097;-66
2022/07/27 10:19:05;;;;;;;3.77;0.63;;;19.60;52.50;;;;;;4983698;28;20038;-67
2022/07/27 10:21:35;;;;;;;4.03;0.30;;;19.60;52.80;;;;;;4967167;28;20069;-67
2022/07/27 10:24:07;;;;;;;4.30;0.60;;;19.90;52.10;;;;;;4950985;28;20065;-67
2022/07/27 10:26:36;;;;;;;3.40;0.40;;;20.30;50.70;;;;;;4969320;28;20142;-65
2022/07/27 10:29:06;;;;;;;2.33;0.50;;;20.50;50.30;;;;;;4984136;28;20502;-65
2022/07/27 10:31:35;;;;;;;2.37;0.20;;;20.80;49.80;;;;;;4949822;28;20051;-65
2022/07/27 10:34:05;;;;;;;2.70;0.50;;;21.00;50.20;;;;;;4956829;28;20042;-65
2022/07/27 10:36:31;;;;;;;1.10;0.30;;;21.10;48.80;;;;;;4963531;28;20057;-65
2022/07/27 10:39:04;;;;;;;2.93;0.50;;;21.30;48.40;;;;;;4959669;28;20197;-65
2022/07/27 10:41:29;;;;;;;5.20;0.70;;;21.30;47.90;;;;;;4957529;28;20061;-66
2022/07/27 10:44:13;;;;;;;2.23;0.30;;;21.30;48.40;;;;;;4943001;28;20562;-66
2022/07/27 10:47:00;;;;;;;2.40;0.70;;;21.40;48.80;;;;;;4943242;28;20047;-65
2022/07/27 10:49:34;;;;;;;2.97;0.30;;;21.50;48.90;;;;;;4971680;28;20051;-65
2022/07/27 10:52:01;;;;;;;2.45;0.38;;;21.60;48.00;;;;;;4943249;28;20500;-65
2022/07/27 10:54:35;;;;;;;3.10;0.30;;;21.80;48.10;;;;;;4960037;28;20053;-65
2022/07/27 10:57:03;;;;;;;3.07;0.40;;;22.10;47.80;;;;;;4974676;28;20042;-65
2022/07/27 10:59:55;;;;;;;2.97;0.50;;;22.10;47.80;;;;;;4950931;28;20666;-65
2022/07/27 11:02:37;;;;;;;3.60;0.40;;;21.90;47.30;;;;;;4974546;28;20495;-65
2022/07/27 11:05:04;;;;;;;2.30;0.30;;;21.80;47.40;;;;;;4967428;28;20435;-65
2022/07/27 11:07:30;;;;;;;4.77;0.47;;;21.60;47.70;;;;;;4962849;28;20050;-65
2022/07/27 11:09:59;;;;;;;3.00;0.40;;;21.40;47.60;;;;;;4957482;28;20034;-65
2022/07/27 11:12:28;;;;;;;1.27;0.30;;;21.40;48.50;;;;;;4962592;28;20054;-65
2022/07/27 11:14:56;;;;;;;1.43;0.10;;;21.70;46.50;;;;;;4936416;28;20050;-65
2022/07/27 11:17:27;;;;;;;0.90;0.13;;;22.00;44.80;;;;;;4962035;28;20039;-65
2022/07/27 11:19:59;;;;;;;1.17;0.20;;;22.20;44.80;;;;;;4963594;28;20051;-65
2022/07/27 11:22:43;;;;;;;1.80;0.30;;;22.50;45.60;;;;;;4946912;28;20053;-66
2022/07/27 11:25:08;;;;;;;1.90;0.27;;;22.50;44.80;;;;;;4946577;28;20074;-66
2022/07/27 11:28:05;;;;;;;2.77;0.63;;;22.60;45.20;;;;;;4962664;28;20271;-66
2022/07/27 11:30:31;;;;;;;2.17;0.10;;;22.60;44.10;;;;;;4950324;28;20053;-65
2022/07/27 11:33:03;;;;;;;2.83;0.40;;;22.40;44.20;;;;;;4926306;29;20047;-65
2022/07/27 12:18:42;;;;;;;2.57;0.40;;;22.10;50.40;;;;;;5110220;27;20414;-66
2022/07/27 12:21:18;;;;;;;1.83;0.33;;;21.40;48.90;;;;;;5072984;28;20046;-66
2022/07/27 12:23:51;;;;;;;3.67;0.60;;;21.10;49.30;;;;;;5091356;28;20028;-66
2022/07/27 12:26:21;;;;;;;1.77;0.30;;;20.90;49.50;;;;;;5094982;28;20103;-66
2022/07/27 12:29:09;;;;;;;1.80;0.23;;;20.70;49.00;;;;;;5060448;28;20036;-66
2022/07/27 12:31:36;;;;;;;4.33;0.40;;;20.60;49.20;;;;;;5097385;28;20051;-66
2022/07/27 12:34:04;;;;;;;2.60;0.30;;;20.60;49.60;;;;;;5097601;28;20040;-66
2022/07/27 12:36:30;;;;;;;1.63;0.33;;;20.60;50.10;;;;;;5099129;28;20037;-66
2022/07/27 12:38:59;;;;;;;2.77;0.30;;;20.80;49.60;;;;;;5098920;28;20051;-66
2022/07/27 12:41:34;;;;;;;2.87;0.40;;;20.80;49.10;;;;;;5081644;28;20044;-66
2022/07/27 12:44:17;;;;;;;3.10;0.30;;;20.80;49.30;;;;;;5077790;28;20033;-66
2022/07/27 12:46:55;;;;;;;1.43;0.20;;;20.90;48.10;;;;;;5076469;28;20079;-66
2022/07/27 12:49:24;;;;;;;1.33;0.20;;;20.80;47.70;;;;;;5099191;28;20107;-67
2022/07/27 12:51:50;;;;;;;1.70;0.20;;;20.80;47.60;;;;;;5098037;28;20040;-66
2022/07/27 12:54:16;;;;;;;1.63;0.30;;;20.80;47.50;;;;;;5080219;28;20052;-66
2022/07/27 12:56:42;;;;;;;3.33;0.20;;;20.90;47.10;;;;;;5108171;28;20127;-67
2022/07/27 12:59:08;;;;;;;1.97;0.20;;;21.10;47.20;;;;;;5097638;28;20044;-67
2022/07/27 13:01:33;;;;;;;4.73;0.40;;;21.40;46.30;;;;;;5096932;28;20081;-66
2022/07/27 13:03:59;;;;;;;7.03;0.60;;;21.60;46.10;;;;;;5096248;28;20505;-66
2022/07/27 13:06:25;;;;;;;1.60;0.20;;;21.60;45.70;;;;;;5097856;28;20048;-66
2022/07/27 13:08:51;;;;;;;1.57;0.20;;;21.50;45.40;;;;;;5093437;28;20050;-66
2022/07/27 13:11:17;;;;;;;1.13;0.10;;;21.40;46.20;;;;;;5067272;28;20033;-67
2022/07/27 13:13:42;;;;;;;1.67;0.43;;;21.60;46.30;;;;;;5070495;28;20044;-67
2022/07/27 13:16:08;;;;;;;2.30;0.23;;;21.80;44.70;;;;;;5076050;28;20037;-67
2022/07/27 13:18:34;;;;;;;3.40;0.30;;;21.90;44.80;;;;;;5071346;28;20072;-66
2022/07/27 13:21:00;;;;;;;2.47;0.30;;;21.90;45.20;;;;;;5083012;28;20032;-67
2022/07/27 13:23:26;;;;;;;2.70;0.20;;;21.90;45.40;;;;;;5057974;28;20033;-66
2022/07/27 13:25:52;;;;;;;1.37;0.20;;;22.00;46.10;;;;;;5078485;28;20048;-66
2022/07/27 13:28:18;;;;;;;1.50;0.30;;;22.20;45.00;;;;;;5061461;28;20063;-67
2022/07/27 13:30:44;;;;;;;4.50;0.27;;;22.20;44.30;;;;;;5063314;28;20028;-67
2022/07/27 13:33:09;;;;;;;2.17;0.20;;;22.10;44.70;;;;;;5051796;28;20040;-67
2022/07/27 13:35:35;;;;;;;2.47;0.40;;;21.90;45.70;;;;;;5083112;28;20032;-66
2022/07/27 13:38:01;;;;;;;3.63;0.60;;;21.80;46.30;;;;;;5078247;28;20504;-66